This is the latest recevied weather packets stored in our database for station/object DO7VLR-5. If no packets are shown the sender has not sent any weather packets the latest 10 day(s).
| Time | Temp. | Humidity | Pressure | Rain* | Wind** | Luminosity | Snow |
|---|---|---|---|---|---|---|---|
| 1777806017 | 20° C | 41% | 1013.8 hPa | 0 mm | - | - | - |
| 1777804217 | 19.44° C | 40% | 1014.1 hPa | 0 mm | - | - | - |
| 1777802417 | 20° C | 38% | 1014.2 hPa | 0 mm | - | - | - |
| 1777800616 | 19.44° C | 38% | 1014.4 hPa | 0 mm | - | - | - |
| 1777798817 | 19.44° C | 41% | 1014.7 hPa | 0 mm | - | - | - |
| 1777797016 | 18.89° C | 41% | 1014.7 hPa | 0 mm | - | - | - |
| 1777795217 | 18.33° C | 44% | 1014.7 hPa | 0 mm | - | - | - |
| 1777793416 | 17.22° C | 51% | 1014.8 hPa | 0 mm | - | - | - |
| 1777791617 | 16.67° C | 50% | 1014.7 hPa | 0 mm | - | - | - |
| 1777789816 | 14.44° C | 62% | 1014.7 hPa | 0 mm | - | - | - |
| 1777788016 | 12.78° C | 77% | 1014.9 hPa | 0 mm | - | - | - |
| 1777786217 | 11.67° C | 80% | 1014.8 hPa | 0 mm | - | - | - |
| 1777784417 | 11.11° C | 80% | 1014.8 hPa | 0 mm | - | - | - |
| 1777782617 | 11.11° C | 81% | 1014.8 hPa | 0 mm | - | - | - |
| 1777780816 | 11.11° C | 81% | 1014.9 hPa | 0 mm | - | - | - |
| 1777779016 | 11.11° C | 81% | 1014.8 hPa | 0 mm | - | - | - |
| 1777777216 | 11.11° C | 80% | 1015.1 hPa | 0 mm | - | - | - |
| 1777775416 | 11.11° C | 80% | 1015.2 hPa | 0 mm | - | - | - |
| 1777773616 | 10.56° C | 79% | 1015.4 hPa | 0 mm | - | - | - |
| 1777771815 | 10.56° C | 77% | 1015.2 hPa | 0 mm | - | - | - |
| 1777770015 | 10.56° C | 76% | 1015.6 hPa | 0 mm | - | - | - |
| 1777768215 | 10.56° C | 75% | 1015.7 hPa | 0 mm | - | - | - |
| 1777766416 | 11.11° C | 73% | 1015.9 hPa | 0 mm | - | - | - |
| 1777764615 | 11.11° C | 72% | 1016 hPa | 0 mm | - | - | - |
| 1777762818 | 11.67° C | 71% | 1016.1 hPa | 0 mm | - | - | - |
* Rain latest hour (hover to see other rain measurements)
** Current wind speed in m/s (hover to see current wind gust speed)